Time;durP1;ratioP1;P1;durP2;ratioP2;P2;SDS_P1;SDS_P2;PMS_P1;PMS_P2;Temp;Humidity;BMP_temperature;BMP_pressure;BME280_temperature;BME280_humidity;BME280_pressure;Samples;Min_cycle;Max_cycle;Signal;HPM_P1;HPM_P2
2022/05/06 00:00:19;;;;;;;123.67;22.90;;;;;;;-145.18;100.00;46621.31;4992924;28;20109;-72
2022/05/06 00:02:44;;;;;;;190.87;21.20;;;;;;;-145.18;100.00;46627.19;4992557;28;20352;-72
2022/05/06 00:05:11;;;;;;;105.27;21.03;;;;;;;-145.18;100.00;46623.28;4992903;28;20112;-72
2022/05/06 00:07:36;;;;;;;168.63;20.37;;;;;;;-145.18;100.00;46623.28;4992263;28;20093;-73
2022/05/06 00:10:04;;;;;;;211.33;21.27;;;;;;;-145.18;100.00;46621.31;4992925;28;20744;-73
2022/05/06 00:12:30;;;;;;;220.07;19.90;;;;;;;-145.18;100.00;46619.38;4992192;28;20104;-73
2022/05/06 00:14:55;;;;;;;218.60;19.37;;;;;;;-145.18;100.00;46623.28;4992687;28;20967;-72
2022/05/06 00:17:21;;;;;;;294.73;23.63;;;;;;;-145.18;100.00;46621.31;4992109;28;20268;-73
2022/05/06 00:19:46;;;;;;;245.57;22.40;;;;;;;-145.18;100.00;46619.38;4992683;28;20711;-73
2022/05/06 00:22:12;;;;;;;168.67;19.43;;;;;;;-145.18;100.00;46623.28;4992266;28;20038;-73
2022/05/06 00:24:38;;;;;;;191.13;18.63;;;;;;;-145.18;100.00;46617.41;4992353;28;20038;-73
2022/05/06 00:27:04;;;;;;;147.53;21.40;;;;;;;-145.18;100.00;46617.41;4974681;28;20125;-73
2022/05/06 00:29:29;;;;;;;101.57;19.17;;;;;;;-145.18;100.00;46617.41;4992387;28;20400;-73
2022/05/06 00:31:55;;;;;;;276.37;25.13;;;;;;;-145.18;100.00;46621.31;4992239;28;20339;-72
2022/05/06 00:34:20;;;;;;;212.23;20.60;;;;;;;-145.18;100.00;46613.50;4979608;28;20031;-72
2022/05/06 00:36:45;;;;;;;219.80;21.00;;;;;;;-145.18;100.00;46617.41;4972804;28;20039;-74
2022/05/06 00:39:11;;;;;;;270.00;23.60;;;;;;;-145.18;100.00;46621.31;4973225;28;20039;-72
2022/05/06 00:41:37;;;;;;;226.17;23.47;;;;;;;-145.18;100.00;46617.41;4971495;28;20045;-72
2022/05/06 00:44:05;;;;;;;249.23;20.87;;;;;;;-145.18;100.00;46621.31;4955696;28;20046;-73
2022/05/06 00:46:31;;;;;;;203.80;19.40;;;;;;;-145.18;100.00;46619.38;4972312;28;20150;-73
2022/05/06 00:48:56;;;;;;;157.73;20.87;;;;;;;-145.18;100.00;46619.38;4976024;28;20597;-73
2022/05/06 00:51:23;;;;;;;186.97;20.87;;;;;;;-145.18;100.00;46617.41;4991680;28;20280;-73
2022/05/06 00:53:50;;;;;;;201.67;20.77;;;;;;;-145.18;100.00;46615.47;4992132;28;20034;-73
2022/05/06 00:56:17;;;;;;;167.00;19.97;;;;;;;-145.18;100.00;46617.41;4991526;28;20296;-73
2022/05/06 00:58:45;;;;;;;249.47;25.20;;;;;;;-145.18;100.00;46615.47;4991709;28;20276;-73
2022/05/06 01:01:10;;;;;;;142.53;21.00;;;;;;;-145.18;100.00;46615.47;4991002;28;20298;-72
2022/05/06 01:03:35;;;;;;;122.40;21.80;;;;;;;-145.18;100.00;46619.38;4991346;28;20976;-72
2022/05/06 01:06:06;;;;;;;137.40;22.77;;;;;;;-145.18;100.00;46615.47;4991663;28;20046;-72
2022/05/06 01:08:31;;;;;;;136.37;20.17;;;;;;;-145.18;100.00;46617.41;4991295;28;20030;-72
2022/05/06 01:10:58;;;;;;;131.83;20.47;;;;;;;-145.18;100.00;46617.41;4991449;28;20280;-72
2022/05/06 01:13:23;;;;;;;109.03;19.77;;;;;;;-145.18;100.00;46613.50;4991562;28;20042;-72
2022/05/06 01:15:49;;;;;;;160.07;20.40;;;;;;;-145.18;100.00;46611.56;4991258;28;20299;-72
2022/05/06 01:18:14;;;;;;;138.00;19.93;;;;;;;-145.18;100.00;46615.47;4991721;28;20129;-72
2022/05/06 01:20:48;;;;;;;182.30;20.17;;;;;;;-145.18;100.00;46613.50;4991112;28;20030;-73
2022/05/06 01:23:13;;;;;;;274.83;26.23;;;;;;;-145.18;100.00;46613.50;4991315;28;20049;-72
2022/05/06 01:25:39;;;;;;;146.87;18.50;;;;;;;-145.18;100.00;46615.47;4991300;28;20323;-72
2022/05/06 01:28:06;;;;;;;235.20;24.20;;;;;;;-145.18;100.00;46611.56;4973801;28;20038;-73
2022/05/06 01:30:37;;;;;;;244.80;21.83;;;;;;;-145.18;100.00;46611.56;4991163;28;20752;-72
2022/05/06 01:33:05;;;;;;;309.13;23.20;;;;;;;-145.18;100.00;46609.59;4990760;28;20295;-72
2022/05/06 01:35:35;;;;;;;202.60;22.50;;;;;;;-145.18;100.00;46609.59;4990765;28;20295;-73
2022/05/06 01:38:04;;;;;;;248.53;22.10;;;;;;;-145.18;100.00;46611.56;4991100;28;20264;-73
2022/05/06 01:40:36;;;;;;;189.43;20.93;;;;;;;-145.18;100.00;46609.59;4991020;28;20272;-73
2022/05/06 01:43:01;;;;;;;219.63;22.80;;;;;;;-145.18;85.42;46609.59;4990610;28;20272;-73
2022/05/06 01:45:30;;;;;;;176.63;21.73;;;;;;;-145.18;83.89;46609.59;4990233;28;20280;-73
2022/05/06 01:47:58;;;;;;;179.23;21.70;;;;;;;-145.18;84.27;46611.56;4990949;28;20030;-73
2022/05/06 01:50:23;;;;;;;107.07;20.57;;;;;;;-145.18;83.90;46611.56;4990784;28;20298;-73
2022/05/06 01:52:50;;;;;;;180.80;22.10;;;;;;;-145.18;83.85;46638.91;4990646;28;20264;-73
2022/05/06 01:55:17;;;;;;;111.13;20.53;;;;;;;-145.18;83.85;46648.69;4990773;28;20037;-73
2022/05/06 01:57:42;;;;;;;98.33;20.43;;;;;;;-145.18;83.96;46652.59;4990166;28;20763;-73
2022/05/06 02:00:08;;;;;;;215.27;24.17;;;;;;;-145.18;84.10;46650.63;4990742;28;20299;-73
2022/05/06 02:02:33;;;;;;;210.17;22.70;;;;;;;-145.18;84.12;46648.69;5084469;23;20077;-72
2022/05/06 02:05:17;;;;;;;147.27;20.13;;;;;;;-145.18;84.10;46650.63;4946799;28;20682;-72
2022/05/06 02:07:52;;;;;;;88.70;19.50;;;;;;;-145.18;83.64;46609.59;4951840;28;20038;-72
2022/05/06 02:10:20;;;;;;;153.98;19.08;;;;;;;-145.18;83.47;46650.63;4952164;28;20297;-72
2022/05/06 02:12:46;;;;;;;372.97;28.40;;;;;;;-145.18;83.48;46652.59;4951398;28;20023;-72
2022/05/06 02:15:13;;;;;;;283.20;23.50;;;;;;;-145.18;83.76;46650.63;4952172;28;20285;-72
2022/05/06 02:17:39;;;;;;;208.80;21.50;;;;;;;-145.18;83.74;46638.91;4951623;28;20258;-72
2022/05/06 02:20:09;;;;;;;233.00;22.80;;;;;;;-145.18;83.59;46652.59;4951095;29;20269;-72
2022/05/06 02:22:37;;;;;;;191.97;22.10;;;;;;;-145.18;83.45;46640.88;4951509;28;20282;-72
2022/05/06 02:25:04;;;;;;;199.93;22.60;;;;;;;-145.18;83.05;46640.88;4951690;28;20360;-72
2022/05/06 02:27:30;;;;;;;91.70;20.63;;;;;;;-145.18;82.47;46650.63;4951846;28;20332;-72
2022/05/06 02:35:23;;;;;;;186.47;19.20;;;;;;;-145.18;82.07;46640.88;4971335;28;20300;-72
2022/05/06 02:37:49;;;;;;;169.40;20.47;;;;;;;-145.18;81.97;46640.88;4970644;28;20261;-72
2022/05/06 02:40:14;;;;;;;205.63;20.27;;;;;;;-145.18;82.01;46638.91;4954127;28;20038;-73
2022/05/06 02:42:39;;;;;;;298.63;23.53;;;;;;;-145.18;81.60;46609.59;4970657;28;20046;-72
2022/05/06 02:45:06;;;;;;;245.97;23.57;;;;;;;-145.18;81.07;46640.88;4971413;28;20062;-72
2022/05/06 02:47:31;;;;;;;186.73;21.63;;;;;;;-145.18;80.81;46638.91;4970513;28;20027;-73
2022/05/06 02:49:56;;;;;;;215.20;23.03;;;;;;;-145.18;80.42;46640.88;4971043;28;20264;-72
2022/05/06 02:52:23;;;;;;;193.73;23.80;;;;;;;-145.18;80.32;46636.94;4970830;28;20505;-73
2022/05/06 02:54:49;;;;;;;235.70;21.60;;;;;;;-145.18;80.45;46648.69;4970971;28;20039;-73
2022/05/06 02:57:14;;;;;;;271.40;24.40;;;;;;;-145.18;80.21;46640.88;4970330;28;20697;-72
2022/05/06 02:59:40;;;;;;;224.90;23.37;;;;;;;-145.18;80.22;46638.91;4971135;28;20038;-73
2022/05/06 03:02:06;;;;;;;188.57;23.43;;;;;;;-145.18;80.08;46635.00;4971619;28;20390;-73
2022/05/06 03:04:31;;;;;;;164.53;23.20;;;;;;;-145.18;79.94;46636.94;4990542;28;20059;-73
2022/05/06 03:06:57;;;;;;;108.77;23.07;;;;;;;-145.18;79.66;46638.91;4989570;28;20041;-73
2022/05/06 03:09:23;;;;;;;135.10;22.40;;;;;;;-145.18;79.53;46640.88;4973085;28;20030;-73
2022/05/06 03:11:48;;;;;;;170.37;24.97;;;;;;;-145.18;79.50;46640.88;4989917;28;20031;-73
2022/05/06 03:14:13;;;;;;;258.43;25.10;;;;;;;-145.18;79.62;46638.91;4990155;28;20479;-72
2022/05/06 03:16:39;;;;;;;260.33;25.87;;;;;;;-145.18;79.77;46640.88;4990168;28;20039;-73
2022/05/06 03:19:04;;;;;;;407.57;32.20;;;;;;;-145.18;79.71;46640.88;4972038;28;20450;-72
2022/05/06 03:21:29;;;;;;;211.83;24.40;;;;;;;-145.18;79.59;46640.88;4990439;28;20368;-72
2022/05/06 03:23:55;;;;;;;160.60;24.67;;;;;;;-145.18;79.66;46652.59;4989680;28;20074;-73
2022/05/06 03:26:20;;;;;;;253.80;29.20;;;;;;;-145.18;79.53;46640.88;4975294;28;20038;-72
2022/05/06 03:28:46;;;;;;;214.80;28.20;;;;;;;-145.18;79.17;46638.91;4975663;28;20109;-73
2022/05/06 03:31:13;;;;;;;168.40;26.63;;;;;;;-145.18;79.18;46636.94;4993772;28;20072;-72
2022/05/06 03:33:41;;;;;;;244.57;28.80;;;;;;;-145.18;79.26;46640.88;4993238;28;20099;-72
2022/05/06 03:36:09;;;;;;;295.50;29.37;;;;;;;-145.18;79.01;46638.91;4993736;28;20404;-72
2022/05/06 03:38:35;;;;;;;427.07;36.47;;;;;;;-145.18;78.69;46638.91;4993031;28;20303;-72
2022/05/06 03:41:00;;;;;;;296.83;29.50;;;;;;;-145.18;78.25;46640.88;4993176;28;20812;-72
2022/05/06 03:43:27;;;;;;;265.40;30.53;;;;;;;-145.18;77.88;46640.88;4993208;28;20113;-73
2022/05/06 03:45:52;;;;;;;330.70;33.43;;;;;;;-145.18;77.51;46603.75;4993366;28;20050;-72
2022/05/06 03:48:21;;;;;;;342.53;33.57;;;;;;;-145.18;77.23;46640.88;4993087;28;20275;-72
2022/05/06 03:53:31;;;;;;;402.40;36.43;;;;;;;-145.18;76.92;46635.00;4978468;28;20327;-71
2022/05/06 03:55:56;;;;;;;259.00;32.20;;;;;;;-145.18;76.92;46650.63;4993195;28;20303;-71
2022/05/06 03:58:22;;;;;;;388.60;35.17;;;;;;;-145.18;76.85;46640.88;4992595;28;20035;-71
2022/05/06 04:00:47;;;;;;;504.87;40.53;;;;;;;-145.18;76.91;46597.88;4993096;28;20039;-71
2022/05/06 04:03:13;;;;;;;334.80;34.63;;;;;;;-145.18;76.75;46648.69;4992645;28;20066;-72
2022/05/06 04:05:40;;;;;;;255.80;32.67;;;;;;;-145.18;76.62;46638.91;4975766;28;20099;-71
2022/05/06 04:08:06;;;;;;;363.37;38.50;;;;;;;-145.18;76.54;46636.94;4992456;28;20351;-71
2022/05/06 04:10:32;;;;;;;414.17;41.53;;;;;;;-145.18;76.52;46636.94;4992847;28;20395;-71
2022/05/06 04:12:57;;;;;;;142.53;31.93;;;;;;;-145.18;76.43;46636.94;4992437;28;20069;-71
2022/05/06 04:15:22;;;;;;;172.07;33.60;;;;;;;-145.18;76.35;46640.88;4987445;28;20039;-71
2022/05/06 04:17:48;;;;;;;176.13;32.87;;;;;;;-145.18;74.36;46636.94;4964681;28;20118;-72
2022/05/06 04:25:41;;;;;;;422.93;38.90;;;;;;;-145.18;74.43;46636.94;4991664;28;20256;-72
2022/05/06 04:28:07;;;;;;;206.23;29.63;;;;;;;-145.18;74.45;46640.88;4991451;28;20264;-71
2022/05/06 04:30:34;;;;;;;142.90;29.80;;;;;;;-145.18;74.45;46638.91;4973683;28;20038;-72
2022/05/06 04:32:59;;;;;;;269.00;31.20;;;;;;;-145.18;74.45;46636.94;4990152;28;20077;-71
2022/05/06 04:35:25;;;;;;;365.97;39.47;;;;;;;-145.18;74.48;46638.91;4991015;28;20333;-72
2022/05/06 04:37:50;;;;;;;440.37;40.57;;;;;;;-145.18;74.47;46638.91;4987589;28;20546;-72
2022/05/06 04:40:16;;;;;;;499.37;46.27;;;;;;;-145.18;74.45;46636.94;4990489;28;20034;-71
2022/05/06 04:42:42;;;;;;;507.60;47.80;;;;;;;-145.18;74.39;46642.81;4955964;28;20142;-71
2022/05/06 04:45:08;;;;;;;462.37;43.63;;;;;;;-145.18;74.37;46638.91;4980136;28;20348;-71
2022/05/06 04:47:34;;;;;;;237.73;34.57;;;;;;;-145.18;74.31;46640.88;4991576;28;20049;-72
2022/05/06 04:50:00;;;;;;;309.47;37.13;;;;;;;-145.18;74.25;46638.91;4991827;28;20027;-71
2022/05/06 04:52:26;;;;;;;476.83;46.30;;;;;;;-145.18;74.20;46597.88;4991186;28;20636;-71
2022/05/06 04:54:51;;;;;;;378.67;41.00;;;;;;;-145.18;74.16;46597.88;4991650;28;20042;-72
2022/05/06 04:57:16;;;;;;;373.47;39.27;;;;;;;-145.18;74.11;46636.94;4954819;28;20487;-72
2022/05/06 04:59:47;;;;;;;452.17;48.93;;;;;;;-145.18;74.10;46636.94;4984311;28;20034;-71
2022/05/06 05:02:13;;;;;;;494.63;48.43;;;;;;;-145.18;74.07;46597.88;4991236;28;20030;-72
2022/05/06 05:04:39;;;;;;;207.87;38.57;;;;;;;-145.18;74.05;46597.88;4991997;28;20307;-71
2022/05/06 05:07:04;;;;;;;177.40;37.63;;;;;;;-145.18;73.98;46597.88;4991613;28;20042;-72
2022/05/06 05:09:30;;;;;;;189.90;40.33;;;;;;;-145.18;73.98;46640.88;4991781;28;20280;-72
2022/05/06 05:11:55;;;;;;;245.90;42.33;;;;;;;-145.18;73.94;46597.88;4991703;28;20034;-72
2022/05/06 05:14:21;;;;;;;264.33;40.37;;;;;;;-145.18;73.94;46638.91;4991341;28;20160;-72
2022/05/06 05:16:48;;;;;;;444.90;50.10;;;;;;;-145.18;73.94;46597.88;4991917;28;20113;-72
2022/05/06 05:19:14;;;;;;;210.33;39.23;;;;;;;-145.18;73.91;46640.88;4995898;28;20152;-72
2022/05/06 05:21:40;;;;;;;197.40;40.20;;;;;;;-145.18;73.94;46597.88;4996653;28;20276;-72
2022/05/06 05:24:06;;;;;;;269.87;41.67;;;;;;;-145.18;73.92;46597.88;4991080;28;20069;-72
2022/05/06 05:26:31;;;;;;;171.20;37.90;;;;;;;-145.18;73.93;46597.88;4991102;28;20977;-72
2022/05/06 05:28:57;;;;;;;176.67;38.17;;;;;;;-145.18;73.92;46597.88;4978159;28;20082;-73
2022/05/06 05:31:22;;;;;;;135.77;37.47;;;;;;;-145.18;73.92;46595.94;4980787;28;20037;-72
2022/05/06 05:33:48;;;;;;;138.70;34.17;;;;;;;-145.18;73.94;46597.88;4988646;28;20121;-72
2022/05/06 05:36:13;;;;;;;138.40;32.27;;;;;;;-145.18;74.00;46597.88;4990519;28;20038;-72
2022/05/06 05:38:39;;;;;;;146.87;34.93;;;;;;;-145.18;74.00;46595.94;4972869;28;20284;-72
2022/05/06 05:41:04;;;;;;;147.90;32.23;;;;;;;-145.18;74.07;46597.88;4990617;28;20134;-72
2022/05/06 05:48:57;;;;;;;75.60;24.70;;;;;;;-145.18;74.17;46595.94;4972074;28;20795;-73
2022/05/06 05:51:23;;;;;;;204.73;25.50;;;;;;;-145.18;74.28;46597.88;4972476;28;20264;-72
2022/05/06 05:53:48;;;;;;;115.30;23.17;;;;;;;-145.18;74.37;46601.78;4957138;28;20402;-73
2022/05/06 05:56:14;;;;;;;158.10;25.73;;;;;;;-145.18;74.46;46599.84;4969956;28;20046;-72
2022/05/06 05:58:39;;;;;;;140.63;24.43;;;;;;;-145.18;74.51;46597.88;4990523;28;20121;-72
2022/05/06 06:01:08;;;;;;;133.27;23.50;;;;;;;-145.18;74.52;46601.78;4990752;28;20038;-73
2022/05/06 06:03:33;;;;;;;142.40;27.13;;;;;;;-145.18;74.54;46597.88;4990432;28;20050;-73
2022/05/06 06:05:58;;;;;;;171.47;26.47;;;;;;;-145.18;74.53;46593.97;4973336;28;20363;-73
2022/05/06 06:08:24;;;;;;;144.00;28.97;;;;;;;-145.18;74.53;46599.84;4990579;28;20037;-73
2022/05/06 06:10:50;;;;;;;140.70;29.20;;;;;;;-145.18;74.58;46601.78;4990667;28;20027;-72
2022/05/06 06:13:18;;;;;;;131.37;29.80;;;;;;;-145.18;74.59;46599.84;4990437;28;20113;-73
2022/05/06 06:15:44;;;;;;;111.20;29.03;;;;;;;-145.18;74.63;46599.84;4990928;28;20296;-73
2022/05/06 06:18:09;;;;;;;124.50;30.50;;;;;;;-145.18;74.65;46609.59;4972850;28;20272;-73
2022/05/06 06:20:37;;;;;;;122.93;30.83;;;;;;;-145.18;74.62;46597.88;4973610;28;20042;-73
2022/05/06 06:23:02;;;;;;;136.23;31.03;;;;;;;-145.18;74.65;46595.94;4989738;28;20030;-73
2022/05/06 06:25:28;;;;;;;145.93;35.27;;;;;;;-145.18;74.76;46599.84;4990668;28;20270;-73
2022/05/06 06:27:53;;;;;;;154.97;35.57;;;;;;;-145.18;74.84;46597.88;4990082;28;20034;-73
2022/05/06 06:30:19;;;;;;;152.03;36.63;;;;;;;-145.18;74.90;46601.78;4988034;28;20042;-73
2022/05/06 06:32:44;;;;;;;149.73;35.57;;;;;;;-145.18;74.96;46601.78;4978201;28;20391;-73
2022/05/06 06:35:10;;;;;;;166.27;39.63;;;;;;;-145.18;75.01;46601.78;4981962;23;20137;-73
2022/05/06 06:37:38;;;;;;;161.07;38.43;;;;;;;-145.18;75.13;46601.78;4953644;28;20042;-73
2022/05/06 06:40:05;;;;;;;167.73;40.03;;;;;;;-145.18;75.32;46601.78;4956787;28;20494;-73
2022/05/06 06:42:30;;;;;;;165.10;42.93;;;;;;;-145.18;75.39;46597.88;4956977;28;20289;-73
2022/05/06 06:44:58;;;;;;;218.00;43.10;;;;;;;-145.18;75.44;46603.75;4957545;28;20284;-73
2022/05/06 06:47:23;;;;;;;186.03;43.87;;;;;;;-145.18;75.49;46601.78;4951015;28;20068;-73
2022/05/06 07:51:27;;;;;;;75.73;28.20;;;;;;;-145.18;100.00;46625.22;4964165;23;20311;-75
2022/05/06 07:53:53;;;;;;;70.93;26.97;;;;;;;-145.18;100.00;46629.13;4971354;28;20284;-74
2022/05/06 07:56:19;;;;;;;78.70;30.17;;;;;;;-145.18;100.00;46625.22;4972281;28;20770;-75
2022/05/06 07:58:44;;;;;;;81.93;31.30;;;;;;;-145.18;100.00;46631.09;4973684;28;20062;-75
2022/05/06 08:01:11;;;;;;;83.37;33.40;;;;;;;-145.18;100.00;46627.19;4971592;28;20039;-75
2022/05/06 08:04:37;;;;;;;77.50;31.47;;;;;;;-145.18;100.00;46633.06;4969153;28;20038;-75
2022/05/06 08:06:31;;;;;;;78.27;31.27;;;;;;;-145.18;100.00;46635.00;4962656;28;20051;-75
2022/05/06 08:08:56;;;;;;;88.33;30.47;;;;;;;-145.18;100.00;46633.06;4972786;28;20522;-75
2022/05/06 08:11:22;;;;;;;72.77;29.67;;;;;;;-145.18;100.00;46636.94;4972292;28;20574;-75
2022/05/06 08:13:49;;;;;;;74.77;29.27;;;;;;;-145.18;100.00;46638.91;4972690;28;20035;-74
2022/05/06 08:16:15;;;;;;;74.40;28.10;;;;;;;-145.18;100.00;46642.81;4953426;28;20043;-74
2022/05/06 08:18:40;;;;;;;75.70;28.80;;;;;;;-145.18;100.00;46646.72;4953911;28;20038;-74
2022/05/06 08:21:05;;;;;;;79.67;30.40;;;;;;;-145.18;100.00;46646.72;4952502;29;20055;-74
2022/05/06 08:23:31;;;;;;;70.53;29.57;;;;;;;-145.18;100.00;46654.53;4953888;28;20050;-74
2022/05/06 08:25:56;;;;;;;81.03;31.00;;;;;;;-145.18;100.00;46656.50;4952015;29;20039;-75
2022/05/06 08:28:22;;;;;;;69.17;29.17;;;;;;;-145.18;100.00;46668.22;4952533;29;20035;-74
2022/05/06 08:30:52;;;;;;;61.77;27.83;;;;;;;-145.18;100.00;46672.13;4956149;28;20038;-74
2022/05/06 08:33:17;;;;;;;62.20;28.07;;;;;;;-145.18;100.00;46670.16;4972901;28;20038;-75
2022/05/06 08:35:44;;;;;;;61.10;26.30;;;;;;;-145.18;100.00;46586.16;4972419;28;20038;-74
2022/05/06 08:38:10;;;;;;;61.47;26.80;;;;;;;-145.18;100.00;46547.09;4972661;28;20050;-74
2022/05/06 08:40:36;;;;;;;54.07;25.00;;;;;;;-145.18;100.00;46545.16;4972177;28;20527;-74
2022/05/06 08:43:03;;;;;;;48.50;24.73;;;;;;;-145.18;100.00;46543.19;4972852;28;20042;-74
2022/05/06 08:51:00;;;;;;;54.77;26.33;;;;;;;-145.18;100.00;46545.16;4978433;28;20105;-75
2022/05/06 08:53:28;;;;;;;49.63;24.87;;;;;;;-145.18;100.00;46543.19;4991640;28;20506;-74
2022/05/06 08:55:55;;;;;;;49.03;25.13;;;;;;;-145.18;100.00;46560.78;4989866;28;20149;-74
2022/05/06 08:58:22;;;;;;;52.83;25.80;;;;;;;-145.18;100.00;46556.88;4991980;28;20038;-74
2022/05/06 09:00:48;;;;;;;61.70;29.60;;;;;;;-145.18;100.00;46554.91;4991327;28;20050;-74
2022/05/06 09:03:15;;;;;;;56.93;29.20;;;;;;;-145.18;100.00;46543.19;4991841;28;20105;-74
2022/05/06 09:05:54;;;;;;;50.13;26.00;;;;;;;-145.18;100.00;46552.97;4991796;28;20022;-75
2022/05/06 09:08:21;;;;;;;53.10;28.07;;;;;;;-145.18;100.00;46545.16;4992057;28;20031;-74
2022/05/06 09:11:03;;;;;;;51.47;27.20;;;;;;;-145.18;100.00;46549.06;4991495;28;20424;-75
2022/05/06 09:13:30;;;;;;;45.47;23.80;;;;;;;-145.18;100.00;46552.97;4992125;28;20026;-74
2022/05/06 09:19:15;;;;;;;53.00;24.87;;;;;;;-145.18;100.00;46562.72;4991661;28;20687;-74
2022/05/06 09:22:08;;;;;;;49.47;26.83;;;;;;;-145.18;100.00;46566.63;4991616;28;20542;-74
2022/05/06 09:24:36;;;;;;;45.43;25.80;;;;;;;-145.18;100.00;46562.72;4991232;28;20030;-74
2022/05/06 09:27:12;;;;;;;44.63;25.13;;;;;;;-145.18;100.00;46552.97;4991407;28;20090;-74
2022/05/06 09:29:41;;;;;;;41.73;23.37;;;;;;;-145.18;100.00;46543.19;4991484;28;20026;-74
2022/05/06 09:32:23;;;;;;;48.33;24.97;;;;;;;-145.18;100.00;46547.09;4991263;28;20050;-74
2022/05/06 09:34:52;;;;;;;36.57;21.10;;;;;;;-145.18;100.00;46549.06;4991244;28;20097;-74
2022/05/06 09:37:37;;;;;;;33.60;20.27;;;;;;;-145.18;100.00;46545.16;4991077;28;20038;-74
2022/05/06 09:40:13;;;;;;;32.93;19.43;;;;;;;-145.18;100.00;46570.53;4990954;28;20042;-75
2022/05/06 09:42:41;;;;;;;33.73;20.30;;;;;;;-145.18;100.00;46574.44;4991176;28;20027;-74
2022/05/06 09:45:08;;;;;;;32.17;19.57;;;;;;;-145.18;100.00;46578.34;4991067;28;20018;-75
2022/05/06 09:47:34;;;;;;;33.00;20.37;;;;;;;-145.18;100.00;46570.53;4991195;28;20034;-74
2022/05/06 09:50:01;;;;;;;32.53;20.70;;;;;;;-145.18;100.00;46578.34;4990796;28;20161;-74
2022/05/06 09:52:26;;;;;;;30.50;19.43;;;;;;;-145.18;100.00;46568.59;4990680;28;20053;-74
2022/05/06 09:54:53;;;;;;;28.47;19.70;;;;;;;-145.18;100.00;46601.78;4990804;28;20050;-74
2022/05/06 09:57:21;;;;;;;28.37;19.57;;;;;;;-145.18;100.00;46799.09;4973760;28;20027;-74
2022/05/06 09:59:47;;;;;;;32.03;19.93;;;;;;;-145.18;100.00;47058.91;4990575;28;20513;-74
2022/05/06 10:02:13;;;;;;;30.03;19.30;;;;;;;-145.18;100.00;47199.56;4990743;28;20545;-74
2022/05/06 10:04:39;;;;;;;27.53;20.63;;;;;;;-145.18;100.00;47181.97;4991060;28;20062;-74
2022/05/06 10:07:09;;;;;;;28.43;20.27;;;;;;;-145.18;100.00;47172.19;4990761;28;20038;-74
2022/05/06 10:09:40;;;;;;;27.73;19.67;;;;;;;-145.18;100.00;47172.19;4991022;28;20474;-74
2022/05/06 10:12:08;;;;;;;22.17;15.50;;;;;;;-145.18;100.00;47180.03;4990642;28;20113;-74
2022/05/06 10:14:35;;;;;;;19.00;14.80;;;;;;;-145.18;100.00;47203.47;4973397;28;20646;-74
2022/05/06 10:17:00;;;;;;;17.03;14.13;;;;;;;-145.18;100.00;47156.56;4990414;28;20037;-73
2022/05/06 10:19:27;;;;;;;21.70;16.03;;;;;;;-145.18;100.00;47146.81;4990798;28;20038;-74
2022/05/06 10:21:55;;;;;;;23.77;16.07;;;;;;;-145.18;100.00;47166.34;4990456;28;20048;-73
2022/05/06 10:24:21;;;;;;;23.30;18.83;;;;;;;-145.18;100.00;47105.78;4990591;28;20093;-73
2022/05/06 10:26:47;;;;;;;15.70;12.97;;;;;;;-145.18;100.00;47096.00;4990283;28;20034;-73
2022/05/06 10:32:53;;;;;;;15.07;11.77;;;;;;;-145.18;100.00;47111.66;4990515;28;20085;-74
2022/05/06 10:35:35;;;;;;;14.07;11.13;;;;;;;-145.18;100.00;47097.97;4983432;28;20045;-73
2022/05/06 10:38:14;;;;;;;11.27;9.93;;;;;;;-145.18;100.00;47101.88;4988854;28;20022;-73
2022/05/06 10:40:48;;;;;;;14.93;9.33;;;;;;;-145.18;100.00;47094.06;4989991;28;20033;-73
2022/05/06 10:43:42;;;;;;;12.50;10.07;;;;;;;-145.18;100.00;47082.34;4989748;28;20033;-73
2022/05/06 10:46:08;;;;;;;13.63;9.90;;;;;;;-145.18;100.00;47094.06;4989989;28;20031;-73
2022/05/06 10:48:33;;;;;;;11.37;9.00;;;;;;;-145.18;100.00;47094.06;4989700;28;20030;-73
2022/05/06 10:51:24;;;;;;;14.30;9.60;;;;;;;-145.18;100.00;47115.56;4989536;28;20076;-72
2022/05/06 10:53:50;;;;;;;15.87;10.43;;;;;;;-145.18;100.00;47113.59;4989094;28;20121;-73
2022/05/06 10:56:16;;;;;;;12.17;9.60;;;;;;;-145.18;100.00;47086.25;4989393;28;20061;-73
2022/05/06 10:58:42;;;;;;;14.20;9.57;;;;;;;-145.18;100.00;47097.97;4988989;28;20034;-73
2022/05/06 11:01:17;;;;;;;12.50;9.57;;;;;;;-145.18;100.00;47082.34;4989318;28;20040;-73
2022/05/06 11:03:53;;;;;;;13.13;8.00;;;;;;;-145.18;100.00;47113.59;4988937;28;20031;-73
2022/05/06 11:06:23;;;;;;;12.50;9.13;;;;;;;-145.18;100.00;47094.06;4989308;28;20054;-73
2022/05/06 11:08:48;;;;;;;10.53;7.20;;;;;;;-145.18;100.00;47082.34;4986570;28;20029;-73
2022/05/06 11:11:15;;;;;;;11.83;8.57;;;;;;;-145.18;100.00;47084.28;4989214;28;20038;-73
2022/05/06 11:13:44;;;;;;;9.93;8.60;;;;;;;-145.18;100.00;47096.00;4989157;28;20474;-73
2022/05/06 11:16:11;;;;;;;10.33;8.37;;;;;;;-145.18;100.00;47086.25;4989168;28;20735;-73
2022/05/06 11:18:43;;;;;;;10.67;8.70;;;;;;;-145.18;100.00;47068.66;4989886;28;20035;-73
2022/05/06 11:21:27;;;;;;;7.93;6.97;;;;;;;-145.18;100.00;47068.66;4989368;28;20038;-73
2022/05/06 11:23:53;;;;;;;12.57;7.33;;;;;;;-145.18;100.00;47090.16;4989709;28;20077;-73
2022/05/06 11:26:27;;;;;;;9.10;7.27;;;;;;;-145.18;100.00;47047.19;4989483;28;20039;-73
2022/05/06 11:29:03;;;;;;;8.65;7.70;;;;;;;-145.18;100.00;47039.34;4989545;28;20550;-73
2022/05/06 11:31:28;;;;;;;14.13;8.98;;;;;;;-145.18;100.00;47064.75;4989517;28;20038;-73
2022/05/06 11:33:58;;;;;;;11.27;7.93;;;;;;;-145.18;100.00;47066.72;4988712;28;20038;-72
2022/05/06 11:36:24;;;;;;;9.90;7.70;;;;;;;-145.18;100.00;47043.28;4989537;28;20550;-73
2022/05/06 11:38:49;;;;;;;15.37;9.33;;;;;;;-145.18;100.00;47078.44;4989375;28;20122;-73
2022/05/06 11:41:16;;;;;;;13.30;9.40;;;;;;;-145.18;100.00;47058.91;4989717;28;20386;-73
2022/05/06 11:43:43;;;;;;;10.43;8.67;;;;;;;-145.18;100.00;47080.38;4989909;28;20097;-73
2022/05/06 11:49:04;;;;;;;21.27;9.73;;;;;;;-145.18;100.00;47047.19;4993160;28;20033;-73
2022/05/06 11:51:33;;;;;;;10.57;7.97;;;;;;;-145.18;100.00;47025.69;4992908;28;20042;-72
2022/05/06 11:54:00;;;;;;;11.33;8.80;;;;;;;-145.18;100.00;47017.88;4992977;28;20034;-73
2022/05/06 11:56:27;;;;;;;9.27;8.37;;;;;;;-145.18;100.00;47017.88;4992670;28;20031;-73
2022/05/06 11:58:56;;;;;;;11.77;9.10;;;;;;;-145.18;100.00;47051.09;4992559;28;20030;-73
2022/05/06 12:01:29;;;;;;;12.97;10.03;;;;;;;-145.18;100.00;47025.69;4992153;28;20029;-73
2022/05/06 12:04:14;;;;;;;10.47;9.17;;;;;;;-145.18;100.00;47019.81;4992823;28;20037;-73
2022/05/06 12:06:48;;;;;;;14.57;9.23;;;;;;;-145.18;100.00;47031.53;4991744;28;20507;-73
2022/05/06 12:09:21;;;;;;;11.57;8.67;;;;;;;-145.18;100.00;47006.16;4992889;28;20041;-72
2022/05/06 12:12:02;;;;;;;14.43;10.90;;;;;;;-145.18;100.00;47002.25;4992576;28;20114;-73
2022/05/06 12:14:27;;;;;;;13.07;10.43;;;;;;;-145.18;100.00;47002.25;4992515;28;20133;-73
2022/05/06 12:16:57;;;;;;;14.50;10.90;;;;;;;-145.18;100.00;47012.00;4992020;28;20774;-72
2022/05/06 12:19:52;;;;;;;13.13;10.83;;;;;;;-145.18;100.00;47002.25;4992499;28;20101;-73
2022/05/06 12:22:23;;;;;;;14.93;10.47;;;;;;;-145.18;100.00;47010.06;4975569;28;20050;-72
2022/05/06 12:24:58;;;;;;;13.50;9.70;;;;;;;-145.18;100.00;47027.63;4992000;28;20050;-72
2022/05/06 12:27:23;;;;;;;11.77;9.93;;;;;;;-145.18;100.00;47062.81;4992253;28;20408;-72
2022/05/06 12:29:49;;;;;;;17.10;10.77;;;;;;;-145.18;100.00;47051.09;4992120;28;20035;-72
2022/05/06 12:32:14;;;;;;;14.90;10.47;;;;;;;-145.18;100.00;47017.88;4992027;28;20037;-72